sensor_id;sensor_type;location;lat;lon;timestamp;pressure;altitude;pressure_sealevel;temperature;humidity
11985;BME280;6052;53.246;10.368;2023-05-12T00:01:06;101213.56;;;18.06;89.10
11985;BME280;6052;53.246;10.368;2023-05-12T00:03:36;101207.84;;;18.03;89.62
11985;BME280;6052;53.246;10.368;2023-05-12T00:06:06;101209.47;;;17.99;89.72
11985;BME280;6052;53.246;10.368;2023-05-12T00:08:37;101203.78;;;18.00;89.54
11985;BME280;6052;53.246;10.368;2023-05-12T00:11:06;101203.47;;;18.02;89.46
11985;BME280;6052;53.246;10.368;2023-05-12T00:13:41;101214.09;;;17.68;90.13
11985;BME280;6052;53.246;10.368;2023-05-12T00:16:11;101211.38;;;17.73;90.86
11985;BME280;6052;53.246;10.368;2023-05-12T00:18:43;101211.66;;;17.92;90.18
11985;BME280;6052;53.246;10.368;2023-05-12T00:21:13;101217.06;;;17.97;89.54
11985;BME280;6052;53.246;10.368;2023-05-12T00:23:42;101208.94;;;17.92;89.35
11985;BME280;6052;53.246;10.368;2023-05-12T00:26:12;101211.94;;;17.95;89.29
11985;BME280;6052;53.246;10.368;2023-05-12T00:28:45;101217.63;;;17.94;90.09
11985;BME280;6052;53.246;10.368;2023-05-12T00:31:15;101213.28;;;18.03;89.62
11985;BME280;6052;53.246;10.368;2023-05-12T00:33:45;101213.56;;;17.96;88.67
11985;BME280;6052;53.246;10.368;2023-05-12T00:36:15;101214.34;;;17.97;89.03
11985;BME280;6052;53.246;10.368;2023-05-12T00:38:44;101221.16;;;17.94;88.69
11985;BME280;6052;53.246;10.368;2023-05-12T00:41:14;101217.91;;;17.92;88.71
11985;BME280;6052;53.246;10.368;2023-05-12T00:43:46;101219.25;;;17.95;89.28
11985;BME280;6052;53.246;10.368;2023-05-12T00:46:15;101221.16;;;17.99;88.98
11985;BME280;6052;53.246;10.368;2023-05-12T00:48:45;101223.06;;;17.94;88.64
11985;BME280;6052;53.246;10.368;2023-05-12T00:51:15;101216.53;;;17.90;88.81
11985;BME280;6052;53.246;10.368;2023-05-12T00:53:47;101217.06;;;17.92;88.93
11985;BME280;6052;53.246;10.368;2023-05-12T00:56:17;101211.94;;;17.90;89.17
11985;BME280;6052;53.246;10.368;2023-05-12T00:58:50;101221.97;;;17.80;89.30
11985;BME280;6052;53.246;10.368;2023-05-12T01:01:19;101218.72;;;17.88;88.86
11985;BME280;6052;53.246;10.368;2023-05-12T01:03:49;101219.78;;;17.82;89.03
11985;BME280;6052;53.246;10.368;2023-05-12T01:06:22;101221.97;;;17.85;88.82
11985;BME280;6052;53.246;10.368;2023-05-12T01:08:56;101213.00;;;17.79;89.33
11985;BME280;6052;53.246;10.368;2023-05-12T01:11:26;101224.16;;;17.83;89.37
11985;BME280;6052;53.246;10.368;2023-05-12T01:13:58;101225.22;;;17.82;89.08
11985;BME280;6052;53.246;10.368;2023-05-12T01:16:34;101226.59;;;17.79;88.71
11985;BME280;6052;53.246;10.368;2023-05-12T01:19:05;101229.31;;;17.74;89.22
11985;BME280;6052;53.246;10.368;2023-05-12T01:21:38;101229.84;;;17.61;90.17
11985;BME280;6052;53.246;10.368;2023-05-12T01:24:10;101231.75;;;17.66;89.69
11985;BME280;6052;53.246;10.368;2023-05-12T01:26:42;101236.09;;;17.72;89.46
11985;BME280;6052;53.246;10.368;2023-05-12T01:29:12;101232.00;;;17.69;88.85
11985;BME280;6052;53.246;10.368;2023-05-12T01:31:41;101237.44;;;17.69;89.59
11985;BME280;6052;53.246;10.368;2023-05-12T01:34:13;101239.06;;;17.70;89.42
11985;BME280;6052;53.246;10.368;2023-05-12T01:36:44;101233.94;;;17.69;88.95
11985;BME280;6052;53.246;10.368;2023-05-12T01:39:13;101245.84;;;17.68;88.62
11985;BME280;6052;53.246;10.368;2023-05-12T01:41:45;101246.94;;;17.72;88.69
11985;BME280;6052;53.246;10.368;2023-05-12T01:44:14;101257.81;;;17.72;88.62
11985;BME280;6052;53.246;10.368;2023-05-12T01:46:44;101253.22;;;17.67;88.52
11985;BME280;6052;53.246;10.368;2023-05-12T01:49:15;101258.38;;;17.69;88.35
11985;BME280;6052;53.246;10.368;2023-05-12T01:51:44;101254.00;;;17.68;88.40
11985;BME280;6052;53.246;10.368;2023-05-12T01:54:13;101259.16;;;17.59;89.11
11985;BME280;6052;53.246;10.368;2023-05-12T01:56:45;101262.16;;;17.63;88.56
11985;BME280;6052;53.246;10.368;2023-05-12T01:59:15;101265.16;;;17.61;88.43
11985;BME280;6052;53.246;10.368;2023-05-12T02:01:44;101267.88;;;17.61;88.33
11985;BME280;6052;53.246;10.368;2023-05-12T02:04:14;101263.22;;;17.57;88.66
11985;BME280;6052;53.246;10.368;2023-05-12T02:06:43;101261.09;;;17.64;88.38
11985;BME280;6052;53.246;10.368;2023-05-12T02:09:13;101259.16;;;17.59;88.10
11985;BME280;6052;53.246;10.368;2023-05-12T02:11:45;101265.16;;;17.61;88.50
11985;BME280;6052;53.246;10.368;2023-05-12T02:14:14;101275.72;;;17.63;88.41
11985;BME280;6052;53.246;10.368;2023-05-12T02:16:44;101280.09;;;17.59;88.10
11985;BME280;6052;53.246;10.368;2023-05-12T02:19:18;101268.38;;;17.58;87.98
11985;BME280;6052;53.246;10.368;2023-05-12T02:21:47;101268.66;;;17.57;88.04
11985;BME280;6052;53.246;10.368;2023-05-12T02:24:17;101275.72;;;17.58;87.97
11985;BME280;6052;53.246;10.368;2023-05-12T02:26:49;101272.19;;;17.57;87.98
11985;BME280;6052;53.246;10.368;2023-05-12T02:29:18;101270.81;;;17.50;88.21
11985;BME280;6052;53.246;10.368;2023-05-12T02:31:48;101269.75;;;17.56;87.82
11985;BME280;6052;53.246;10.368;2023-05-12T02:34:18;101263.22;;;17.57;87.50
11985;BME280;6052;53.246;10.368;2023-05-12T02:36:47;101274.63;;;17.49;87.83
11985;BME280;6052;53.246;10.368;2023-05-12T02:39:17;101270.28;;;17.53;87.68
11985;BME280;6052;53.246;10.368;2023-05-12T02:41:50;101268.91;;;17.45;87.50
11985;BME280;6052;53.246;10.368;2023-05-12T02:44:19;101274.91;;;17.47;87.64
11985;BME280;6052;53.246;10.368;2023-05-12T02:46:49;101276.53;;;17.48;87.91
11985;BME280;6052;53.246;10.368;2023-05-12T02:49:19;101279.50;;;17.52;87.01
11985;BME280;6052;53.246;10.368;2023-05-12T02:51:48;101272.69;;;17.39;87.33
11985;BME280;6052;53.246;10.368;2023-05-12T02:54:18;101271.03;;;17.38;87.66
11985;BME280;6052;53.246;10.368;2023-05-12T02:56:50;101278.13;;;17.39;88.04
11985;BME280;6052;53.246;10.368;2023-05-12T02:59:20;101276.72;;;17.37;88.52
11985;BME280;6052;53.246;10.368;2023-05-12T03:01:49;101272.69;;;17.39;87.70
11985;BME280;6052;53.246;10.368;2023-05-12T03:04:19;101270.22;;;17.38;87.76
11985;BME280;6052;53.246;10.368;2023-05-12T03:06:48;101274.59;;;17.39;87.65
11985;BME280;6052;53.246;10.368;2023-05-12T03:09:18;101270.50;;;17.36;87.46
11985;BME280;6052;53.246;10.368;2023-05-12T03:11:50;101268.59;;;17.37;87.65
11985;BME280;6052;53.246;10.368;2023-05-12T03:14:19;101277.31;;;17.39;87.11
11985;BME280;6052;53.246;10.368;2023-05-12T03:16:49;101285.41;;;17.34;87.52
11985;BME280;6052;53.246;10.368;2023-05-12T03:19:18;101282.41;;;17.35;87.57
11985;BME280;6052;53.246;10.368;2023-05-12T03:21:47;101284.31;;;17.35;87.53
11985;BME280;6052;53.246;10.368;2023-05-12T03:24:17;101281.88;;;17.33;87.75
11985;BME280;6052;53.246;10.368;2023-05-12T03:26:46;101281.88;;;17.33;87.45
11985;BME280;6052;53.246;10.368;2023-05-12T03:29:19;101278.06;;;17.34;87.33
11985;BME280;6052;53.246;10.368;2023-05-12T03:31:48;101281.88;;;17.38;87.23
11985;BME280;6052;53.246;10.368;2023-05-12T03:34:18;101284.84;;;17.32;86.97
11985;BME280;6052;53.246;10.368;2023-05-12T03:36:48;101291.91;;;17.33;87.20
11985;BME280;6052;53.246;10.368;2023-05-12T03:39:18;101289.41;;;17.21;87.51
11985;BME280;6052;53.246;10.368;2023-05-12T03:41:50;101294.31;;;17.19;88.19
11985;BME280;6052;53.246;10.368;2023-05-12T03:44:23;101290.53;;;17.25;87.62
11985;BME280;6052;53.246;10.368;2023-05-12T03:46:54;101289.19;;;17.28;87.55
11985;BME280;6052;53.246;10.368;2023-05-12T03:49:26;101292.47;;;17.30;87.39
11985;BME280;6052;53.246;10.368;2023-05-12T03:51:56;101288.09;;;17.29;87.17
11985;BME280;6052;53.246;10.368;2023-05-12T03:54:26;101291.63;;;17.29;87.71
11985;BME280;6052;53.246;10.368;2023-05-12T03:56:56;101298.94;;;17.29;87.15
11985;BME280;6052;53.246;10.368;2023-05-12T03:59:29;101302.47;;;17.29;87.65
11985;BME280;6052;53.246;10.368;2023-05-12T04:01:59;101303.56;;;17.28;87.25
11985;BME280;6052;53.246;10.368;2023-05-12T04:04:29;101294.59;;;17.23;87.48
11985;BME280;6052;53.246;10.368;2023-05-12T04:06:59;101303.84;;;17.27;87.13
11985;BME280;6052;53.246;10.368;2023-05-12T04:09:30;101300.28;;;17.26;87.71
11985;BME280;6052;53.246;10.368;2023-05-12T04:12:00;101305.47;;;17.28;87.35
11985;BME280;6052;53.246;10.368;2023-05-12T04:14:33;101311.13;;;17.21;87.76
11985;BME280;6052;53.246;10.368;2023-05-12T04:17:08;101307.09;;;17.29;87.27
11985;BME280;6052;53.246;10.368;2023-05-12T04:19:38;101309.00;;;17.28;87.22
11985;BME280;6052;53.246;10.368;2023-05-12T04:22:08;101305.69;;;17.21;87.43
11985;BME280;6052;53.246;10.368;2023-05-12T04:24:38;101319.56;;;17.25;87.16
11985;BME280;6052;53.246;10.368;2023-05-12T04:27:09;101320.66;;;17.29;87.60
11985;BME280;6052;53.246;10.368;2023-05-12T04:29:41;101323.09;;;17.25;87.65
11985;BME280;6052;53.246;10.368;2023-05-12T04:32:10;101324.97;;;17.20;87.83
11985;BME280;6052;53.246;10.368;2023-05-12T04:34:40;101322.97;;;17.00;88.86
11985;BME280;6052;53.246;10.368;2023-05-12T04:37:10;101330.66;;;17.13;88.20
11985;BME280;6052;53.246;10.368;2023-05-12T04:39:39;101329.31;;;17.16;88.06
11985;BME280;6052;53.246;10.368;2023-05-12T04:42:09;101330.94;;;17.17;88.15
11985;BME280;6052;53.246;10.368;2023-05-12T04:44:41;101331.75;;;17.17;88.07
11985;BME280;6052;53.246;10.368;2023-05-12T04:47:14;101342.34;;;17.24;87.91
11985;BME280;6052;53.246;10.368;2023-05-12T04:49:44;101338.56;;;17.20;87.74
11985;BME280;6052;53.246;10.368;2023-05-12T04:52:13;101345.88;;;17.19;88.12
11985;BME280;6052;53.246;10.368;2023-05-12T04:54:43;101349.94;;;17.22;88.14
11985;BME280;6052;53.246;10.368;2023-05-12T04:57:13;101354.81;;;17.15;88.65
11985;BME280;6052;53.246;10.368;2023-05-12T04:59:46;101356.34;;;17.01;89.35
11985;BME280;6052;53.246;10.368;2023-05-12T05:02:15;101352.03;;;17.05;89.63
11985;BME280;6052;53.246;10.368;2023-05-12T05:04:45;101350.75;;;17.17;88.74
11985;BME280;6052;53.246;10.368;2023-05-12T05:07:14;101359.16;;;17.21;88.33
11985;BME280;6052;53.246;10.368;2023-05-12T05:09:43;101353.47;;;17.22;87.69
11985;BME280;6052;53.246;10.368;2023-05-12T05:12:13;101364.06;;;17.24;88.29
11985;BME280;6052;53.246;10.368;2023-05-12T05:14:42;101359.06;;;17.01;90.42
11985;BME280;6052;53.246;10.368;2023-05-12T05:17:14;101371.78;;;16.95;89.78
11985;BME280;6052;53.246;10.368;2023-05-12T05:19:44;101366.22;;;16.75;90.31
11985;BME280;6052;53.246;10.368;2023-05-12T05:22:24;101377.13;;;16.85;90.95
11985;BME280;6052;53.246;10.368;2023-05-12T05:24:53;101377.69;;;16.87;89.81
11985;BME280;6052;53.246;10.368;2023-05-12T05:27:23;101381.34;;;17.08;88.74
11985;BME280;6052;53.246;10.368;2023-05-12T05:29:52;101379.94;;;17.00;88.44
11985;BME280;6052;53.246;10.368;2023-05-12T05:32:24;101378.31;;;16.58;91.29
11985;BME280;6052;53.246;10.368;2023-05-12T05:34:54;101377.63;;;16.77;90.46
11985;BME280;6052;53.246;10.368;2023-05-12T05:37:23;101387.38;;;16.73;90.76
11985;BME280;6052;53.246;10.368;2023-05-12T05:39:53;101387.75;;;16.55;92.08
11985;BME280;6052;53.246;10.368;2023-05-12T05:42:22;101390.91;;;16.79;90.97
11985;BME280;6052;53.246;10.368;2023-05-12T05:44:52;101393.00;;;16.67;92.20
11985;BME280;6052;53.246;10.368;2023-05-12T05:47:24;101384.63;;;16.68;91.35
11985;BME280;6052;53.246;10.368;2023-05-12T05:49:53;101388.88;;;16.59;91.75
11985;BME280;6052;53.246;10.368;2023-05-12T05:52:23;101394.94;;;16.71;91.85
11985;BME280;6052;53.246;10.368;2023-05-12T05:54:52;101394.69;;;16.73;90.69
11985;BME280;6052;53.246;10.368;2023-05-12T05:57:24;101384.22;;;16.55;93.14
11985;BME280;6052;53.246;10.368;2023-05-12T05:59:54;101403.31;;;16.70;92.39
11985;BME280;6052;53.246;10.368;2023-05-12T06:02:26;101403.56;;;16.63;92.79
11985;BME280;6052;53.246;10.368;2023-05-12T06:04:55;101411.50;;;16.43;94.02
11985;BME280;6052;53.246;10.368;2023-05-12T06:07:25;101412.44;;;16.59;92.49
11985;BME280;6052;53.246;10.368;2023-05-12T06:09:55;101414.69;;;16.67;91.00
11985;BME280;6052;53.246;10.368;2023-05-12T06:12:24;101415.22;;;16.64;91.65
11985;BME280;6052;53.246;10.368;2023-05-12T06:14:53;101413.94;;;16.76;91.33
11985;BME280;6052;53.246;10.368;2023-05-12T06:17:25;101418.25;;;16.72;91.09
11985;BME280;6052;53.246;10.368;2023-05-12T06:19:58;101417.41;;;16.67;92.02
11985;BME280;6052;53.246;10.368;2023-05-12T06:22:27;101414.28;;;16.85;89.86
11985;BME280;6052;53.246;10.368;2023-05-12T06:24:56;101421.47;;;16.64;90.92
11985;BME280;6052;53.246;10.368;2023-05-12T06:27:26;101423.56;;;16.57;91.45
11985;BME280;6052;53.246;10.368;2023-05-12T06:29:55;101433.97;;;16.70;92.65
11985;BME280;6052;53.246;10.368;2023-05-12T06:32:27;101427.34;;;16.56;92.97
11985;BME280;6052;53.246;10.368;2023-05-12T06:34:57;101427.72;;;16.70;92.20
11985;BME280;6052;53.246;10.368;2023-05-12T06:37:26;101434.75;;;16.66;92.43
11985;BME280;6052;53.246;10.368;2023-05-12T06:39:55;101433.97;;;16.70;92.69
11985;BME280;6052;53.246;10.368;2023-05-12T06:42:25;101428.63;;;16.80;91.48
11985;BME280;6052;53.246;10.368;2023-05-12T06:44:54;101440.06;;;16.87;91.47
11985;BME280;6052;53.246;10.368;2023-05-12T06:47:29;101435.16;;;16.84;91.78
11985;BME280;6052;53.246;10.368;2023-05-12T06:49:58;101438.97;;;16.83;93.22
11985;BME280;6052;53.246;10.368;2023-05-12T06:52:27;101439.81;;;16.89;94.22
11985;BME280;6052;53.246;10.368;2023-05-12T06:54:57;101449.97;;;17.03;93.86
11985;BME280;6052;53.246;10.368;2023-05-12T06:57:26;101444.53;;;17.03;93.99
11985;BME280;6052;53.246;10.368;2023-05-12T06:59:55;101445.66;;;17.07;93.99
11985;BME280;6052;53.246;10.368;2023-05-12T07:02:26;101437.28;;;17.19;94.42
11985;BME280;6052;53.246;10.368;2023-05-12T07:04:58;101444.34;;;17.15;92.49
11985;BME280;6052;53.246;10.368;2023-05-12T07:07:29;101446.50;;;17.13;91.99
11985;BME280;6052;53.246;10.368;2023-05-12T07:09:59;101447.34;;;17.18;92.30
11985;BME280;6052;53.246;10.368;2023-05-12T07:12:29;101442.47;;;17.20;92.44
11985;BME280;6052;53.246;10.368;2023-05-12T07:14:59;101448.22;;;17.29;92.45
11985;BME280;6052;53.246;10.368;2023-05-12T07:17:28;101445.00;;;17.37;93.77
11985;BME280;6052;53.246;10.368;2023-05-12T07:20:00;101454.84;;;17.43;93.01
11985;BME280;6052;53.246;10.368;2023-05-12T07:22:31;101453.50;;;17.45;93.20
11985;BME280;6052;53.246;10.368;2023-05-12T07:25:04;101452.69;;;17.45;90.59
11985;BME280;6052;53.246;10.368;2023-05-12T07:27:34;101448.41;;;17.54;91.87
11985;BME280;6052;53.246;10.368;2023-05-12T07:30:08;101460.91;;;17.60;89.93
11985;BME280;6052;53.246;10.368;2023-05-12T07:32:38;101462.06;;;17.74;91.93
11985;BME280;6052;53.246;10.368;2023-05-12T07:35:11;101456.28;;;17.60;88.29
11985;BME280;6052;53.246;10.368;2023-05-12T07:37:40;101457.75;;;17.78;89.85
11985;BME280;6052;53.246;10.368;2023-05-12T07:40:10;101455.06;;;17.83;90.02
11985;BME280;6052;53.246;10.368;2023-05-12T07:42:40;101460.47;;;17.83;88.25
11985;BME280;6052;53.246;10.368;2023-05-12T07:45:10;101455.09;;;17.93;88.22
11985;BME280;6052;53.246;10.368;2023-05-12T07:47:39;101461.31;;;17.93;89.05
11985;BME280;6052;53.246;10.368;2023-05-12T07:50:14;101455.41;;;18.11;88.82
11985;BME280;6052;53.246;10.368;2023-05-12T07:52:48;101461.91;;;18.05;88.41
11985;BME280;6052;53.246;10.368;2023-05-12T07:55:19;101471.97;;;18.10;89.66
11985;BME280;6052;53.246;10.368;2023-05-12T07:57:52;101461.09;;;18.10;88.06
11985;BME280;6052;53.246;10.368;2023-05-12T08:00:21;101457.31;;;18.16;87.02
11985;BME280;6052;53.246;10.368;2023-05-12T08:02:51;101461.69;;;18.22;86.84
11985;BME280;6052;53.246;10.368;2023-05-12T08:05:24;101468.75;;;18.23;85.82
11985;BME280;6052;53.246;10.368;2023-05-12T08:07:53;101462.22;;;18.19;85.95
11985;BME280;6052;53.246;10.368;2023-05-12T08:10:23;101460.63;;;18.28;85.28
11985;BME280;6052;53.246;10.368;2023-05-12T08:12:56;101463.34;;;18.28;83.27
11985;BME280;6052;53.246;10.368;2023-05-12T08:15:26;101474.25;;;18.33;83.46
11985;BME280;6052;53.246;10.368;2023-05-12T08:17:55;101474.28;;;18.48;84.40
11985;BME280;6052;53.246;10.368;2023-05-12T08:20:27;101470.47;;;18.49;85.50
11985;BME280;6052;53.246;10.368;2023-05-12T08:22:57;101472.41;;;18.63;83.79
11985;BME280;6052;53.246;10.368;2023-05-12T08:25:26;101466.97;;;18.73;84.55
11985;BME280;6052;53.246;10.368;2023-05-12T08:27:56;101460.41;;;18.69;81.63
11985;BME280;6052;53.246;10.368;2023-05-12T08:30:25;101473.47;;;18.77;82.61
11985;BME280;6052;53.246;10.368;2023-05-12T08:32:55;101471.03;;;19.01;81.23
11985;BME280;6052;53.246;10.368;2023-05-12T08:35:28;101475.09;;;19.08;81.94
11985;BME280;6052;53.246;10.368;2023-05-12T08:37:58;101479.72;;;19.18;81.69
11985;BME280;6052;53.246;10.368;2023-05-12T08:40:33;101478.91;;;19.17;83.58
11985;BME280;6052;53.246;10.368;2023-05-12T08:43:06;101482.44;;;19.08;81.46
11985;BME280;6052;53.246;10.368;2023-05-12T08:45:40;101473.44;;;19.42;82.46
11985;BME280;6052;53.246;10.368;2023-05-12T08:48:11;101472.06;;;19.50;81.54
11985;BME280;6052;53.246;10.368;2023-05-12T08:50:44;101472.31;;;19.58;82.52
11985;BME280;6052;53.246;10.368;2023-05-12T08:53:19;101475.84;;;19.59;80.05
11985;BME280;6052;53.246;10.368;2023-05-12T08:55:49;101472.53;;;19.67;78.68
11985;BME280;6052;53.246;10.368;2023-05-12T08:58:41;101475.19;;;19.82;79.36
11985;BME280;6052;53.246;10.368;2023-05-12T09:01:12;101466.38;;;20.10;76.96
11985;BME280;6052;53.246;10.368;2023-05-12T09:03:42;101463.03;;;20.28;73.92
11985;BME280;6052;53.246;10.368;2023-05-12T09:06:15;101468.78;;;20.21;75.24
11985;BME280;6052;53.246;10.368;2023-05-12T09:08:44;101461.88;;;20.34;74.20
11985;BME280;6052;53.246;10.368;2023-05-12T09:11:15;101460.56;;;20.26;73.09
11985;BME280;6052;53.246;10.368;2023-05-12T09:13:49;101469.41;;;20.52;73.83
11985;BME280;6052;53.246;10.368;2023-05-12T09:16:22;101462.22;;;20.66;72.88
11985;BME280;6052;53.246;10.368;2023-05-12T09:18:54;101456.94;;;20.74;73.22
11985;BME280;6052;53.246;10.368;2023-05-12T09:21:26;101459.34;;;20.81;73.57
11985;BME280;6052;53.246;10.368;2023-05-12T09:23:57;101454.38;;;20.54;68.78
11985;BME280;6052;53.246;10.368;2023-05-12T09:26:43;101457.34;;;20.58;70.18
11985;BME280;6052;53.246;10.368;2023-05-12T09:29:14;101447.41;;;21.05;67.84
11985;BME280;6052;53.246;10.368;2023-05-12T09:31:57;101446.66;;;21.52;66.56
11985;BME280;6052;53.246;10.368;2023-05-12T09:34:29;101451.66;;;21.16;68.58
11985;BME280;6052;53.246;10.368;2023-05-12T09:37:04;101452.09;;;21.52;66.59
11985;BME280;6052;53.246;10.368;2023-05-12T09:39:35;101451.53;;;21.31;66.80
11985;BME280;6052;53.246;10.368;2023-05-12T09:42:09;101445.72;;;21.38;65.21
11985;BME280;6052;53.246;10.368;2023-05-12T09:44:39;101446.09;;;21.78;68.67
11985;BME280;6052;53.246;10.368;2023-05-12T09:47:09;101454.44;;;21.40;65.36
11985;BME280;6052;53.246;10.368;2023-05-12T09:49:45;101443.13;;;21.23;65.79
11985;BME280;6052;53.246;10.368;2023-05-12T09:52:19;101440.38;;;21.75;66.16
11985;BME280;6052;53.246;10.368;2023-05-12T09:54:48;101443.84;;;22.22;63.57
11985;BME280;6052;53.246;10.368;2023-05-12T09:57:19;101440.44;;;22.49;59.54
11985;BME280;6052;53.246;10.368;2023-05-12T09:59:49;101438.00;;;22.10;61.40
11985;BME280;6052;53.246;10.368;2023-05-12T10:02:20;101440.38;;;21.75;61.84
11985;BME280;6052;53.246;10.368;2023-05-12T10:04:58;101440.84;;;21.35;60.45
11985;BME280;6052;53.246;10.368;2023-05-12T10:07:33;101440.19;;;21.43;56.97
11985;BME280;6052;53.246;10.368;2023-05-12T10:10:05;101443.97;;;22.12;60.34
11985;BME280;6052;53.246;10.368;2023-05-12T10:12:35;101447.56;;;21.89;62.43
11985;BME280;6052;53.246;10.368;2023-05-12T10:15:07;101447.25;;;21.49;60.09
11985;BME280;6052;53.246;10.368;2023-05-12T10:17:39;101444.75;;;21.76;62.40
11985;BME280;6052;53.246;10.368;2023-05-12T10:20:10;101441.88;;;21.86;63.86
11985;BME280;6052;53.246;10.368;2023-05-12T10:25:15;101440.25;;;21.85;60.91
11985;BME280;6052;53.246;10.368;2023-05-12T10:27:47;101443.06;;;21.80;61.03
11985;BME280;6052;53.246;10.368;2023-05-12T10:30:17;101439.28;;;21.76;60.53
11985;BME280;6052;53.246;10.368;2023-05-12T10:32:47;101444.56;;;21.91;62.42
11985;BME280;6052;53.246;10.368;2023-05-12T10:35:18;101438.50;;;21.94;58.07
11985;BME280;6052;53.246;10.368;2023-05-12T10:37:50;101430.84;;;21.72;57.82
11985;BME280;6052;53.246;10.368;2023-05-12T10:40:23;101437.81;;;21.83;61.09
11985;BME280;6052;53.246;10.368;2023-05-12T10:42:57;101441.09;;;22.22;60.73
11985;BME280;6052;53.246;10.368;2023-05-12T10:45:27;101439.56;;;22.16;57.22
11985;BME280;6052;53.246;10.368;2023-05-12T10:48:06;101435.75;;;22.31;56.40
11985;BME280;6052;53.246;10.368;2023-05-12T10:50:36;101443.91;;;22.36;56.53
11985;BME280;6052;53.246;10.368;2023-05-12T10:53:10;101446.78;;;22.26;57.14
11985;BME280;6052;53.246;10.368;2023-05-12T10:55:41;101437.47;;;22.08;56.25
11985;BME280;6052;53.246;10.368;2023-05-12T10:58:15;101444.25;;;21.74;56.85
11985;BME280;6052;53.246;10.368;2023-05-12T11:00:49;101441.09;;;22.04;55.84
11985;BME280;6052;53.246;10.368;2023-05-12T11:03:23;101437.38;;;21.76;54.52
11985;BME280;6052;53.246;10.368;2023-05-12T11:05:58;101436.81;;;21.98;57.37
11985;BME280;6052;53.246;10.368;2023-05-12T11:08:31;101438.69;;;21.79;52.91
11985;BME280;6052;53.246;10.368;2023-05-12T11:11:01;101434.59;;;22.00;53.92
11985;BME280;6052;53.246;10.368;2023-05-12T11:13:31;101428.91;;;22.15;53.64
11985;BME280;6052;53.246;10.368;2023-05-12T11:16:01;101428.41;;;22.13;55.46
11985;BME280;6052;53.246;10.368;2023-05-12T11:18:30;101431.38;;;22.54;53.80
11985;BME280;6052;53.246;10.368;2023-05-12T11:21:08;101429.63;;;22.58;51.94
11985;BME280;6052;53.246;10.368;2023-05-12T11:23:40;101433.94;;;22.64;52.17
11985;BME280;6052;53.246;10.368;2023-05-12T11:26:15;101431.78;;;22.42;53.35
11985;BME280;6052;53.246;10.368;2023-05-12T11:28:45;101433.28;;;22.53;52.52
11985;BME280;6052;53.246;10.368;2023-05-12T11:31:16;101444.31;;;22.80;52.79
11985;BME280;6052;53.246;10.368;2023-05-12T11:33:47;101437.31;;;23.06;50.98
11985;BME280;6052;53.246;10.368;2023-05-12T11:36:37;101433.31;;;22.99;51.51
11985;BME280;6052;53.246;10.368;2023-05-12T11:39:15;101430.09;;;23.10;51.26
11985;BME280;6052;53.246;10.368;2023-05-12T11:41:44;101436.38;;;23.11;52.12
11985;BME280;6052;53.246;10.368;2023-05-12T11:44:16;101437.97;;;22.98;52.22
11985;BME280;6052;53.246;10.368;2023-05-12T11:46:53;101440.97;;;23.15;52.06
11985;BME280;6052;53.246;10.368;2023-05-12T11:49:23;101438.44;;;22.87;50.12
11985;BME280;6052;53.246;10.368;2023-05-12T11:51:55;101440.50;;;22.63;50.06
11985;BME280;6052;53.246;10.368;2023-05-12T11:54:28;101442.22;;;22.91;50.67
11985;BME280;6052;53.246;10.368;2023-05-12T11:56:57;101439.47;;;22.40;50.31
11985;BME280;6052;53.246;10.368;2023-05-12T11:59:28;101441.56;;;22.80;52.60
11985;BME280;6052;53.246;10.368;2023-05-12T12:01:59;101435.00;;;22.81;50.04
11985;BME280;6052;53.246;10.368;2023-05-12T12:04:33;101434.75;;;22.96;51.09
11985;BME280;6052;53.246;10.368;2023-05-12T12:07:03;101447.22;;;23.02;50.55
11985;BME280;6052;53.246;10.368;2023-05-12T12:09:37;101440.91;;;22.88;50.60
11985;BME280;6052;53.246;10.368;2023-05-12T12:12:09;101433.16;;;22.45;50.51
11985;BME280;6052;53.246;10.368;2023-05-12T12:14:39;101437.97;;;22.98;50.83
11985;BME280;6052;53.246;10.368;2023-05-12T12:17:09;101433.28;;;22.53;50.72
11985;BME280;6052;53.246;10.368;2023-05-12T12:19:38;101443.59;;;22.37;50.57
11985;BME280;6052;53.246;10.368;2023-05-12T12:22:08;101435.72;;;22.87;50.05
11985;BME280;6052;53.246;10.368;2023-05-12T12:24:40;101427.34;;;22.65;50.45
11985;BME280;6052;53.246;10.368;2023-05-12T12:27:09;101446.13;;;22.52;50.48
11985;BME280;6052;53.246;10.368;2023-05-12T12:29:38;101444.31;;;22.80;50.17
11985;BME280;6052;53.246;10.368;2023-05-12T12:32:08;101454.69;;;22.83;50.20
11985;BME280;6052;53.246;10.368;2023-05-12T12:34:37;101452.88;;;22.60;49.83
11985;BME280;6052;53.246;10.368;2023-05-12T12:37:07;101443.22;;;22.81;50.50
11985;BME280;6052;53.246;10.368;2023-05-12T12:39:36;101450.50;;;22.72;50.85
11985;BME280;6052;53.246;10.368;2023-05-12T12:42:08;101435.34;;;22.61;50.95
11985;BME280;6052;53.246;10.368;2023-05-12T12:44:38;101428.72;;;22.81;50.97
11985;BME280;6052;53.246;10.368;2023-05-12T12:47:08;101426.19;;;22.84;51.58
11985;BME280;6052;53.246;10.368;2023-05-12T12:49:37;101425.50;;;22.92;48.53
11985;BME280;6052;53.246;10.368;2023-05-12T12:52:07;101429.00;;;22.79;48.72
11985;BME280;6052;53.246;10.368;2023-05-12T12:54:36;101429.00;;;22.79;49.59
11985;BME280;6052;53.246;10.368;2023-05-12T12:57:08;101427.31;;;22.97;50.88
11985;BME280;6052;53.246;10.368;2023-05-12T12:59:38;101424.81;;;22.68;51.42
11985;BME280;6052;53.246;10.368;2023-05-12T13:02:07;101428.66;;;22.99;50.86
11985;BME280;6052;53.246;10.368;2023-05-12T13:04:36;101431.47;;;22.94;51.79
11985;BME280;6052;53.246;10.368;2023-05-12T13:07:06;101423.78;;;22.96;50.25
11985;BME280;6052;53.246;10.368;2023-05-12T13:09:35;101437.75;;;22.81;49.88
11985;BME280;6052;53.246;10.368;2023-05-12T13:12:08;101428.66;;;22.99;50.49